createdAt,value
2022-12-12T00:00:14.748Z,97863.00
2022-12-12T00:02:42.488Z,97868.75
2022-12-12T00:05:10.066Z,97867.41
2022-12-12T00:07:36.861Z,97863.03
2022-12-12T00:10:04.529Z,97862.22
2022-12-12T00:12:30.996Z,97863.19
2022-12-12T00:14:57.935Z,97860.34
2022-12-12T00:17:24.422Z,97864.81
2022-12-12T00:19:51.015Z,97858.69
2022-12-12T00:22:17.722Z,97855.56
2022-12-12T00:24:44.318Z,97848.72
2022-12-12T00:27:10.839Z,97848.72
2022-12-12T00:29:37.424Z,97847.94
2022-12-12T00:32:04.036Z,97855.53
2022-12-12T00:34:30.552Z,97851.47
2022-12-12T00:36:57.036Z,97855.00
2022-12-12T00:39:23.772Z,97853.38
2022-12-12T00:41:50.860Z,97856.22
2022-12-12T00:44:19.050Z,97860.31
2022-12-12T00:46:45.618Z,97866.47
2022-12-12T00:49:13.147Z,97862.34
2022-12-12T00:51:39.609Z,97863.59
2022-12-12T00:54:06.100Z,97863.31
2022-12-12T00:56:32.684Z,97863.47
2022-12-12T00:58:59.158Z,97858.53
2022-12-12T01:01:29.008Z,97853.09
2022-12-12T01:03:55.756Z,97852.97
2022-12-12T01:06:22.470Z,97850.22
2022-12-12T01:08:49.343Z,97857.19
2022-12-12T01:11:17.495Z,97853.50
2022-12-12T01:13:44.084Z,97865.44
2022-12-12T01:16:11.582Z,97859.13
2022-12-12T01:18:38.180Z,97858.56
2022-12-12T01:21:09.707Z,97864.59
2022-12-12T01:23:36.484Z,97869.84
2022-12-12T01:26:06.037Z,97869.25
2022-12-12T01:28:33.258Z,97867.75
2022-12-12T01:30:59.833Z,97878.28
2022-12-12T01:33:26.502Z,97876.91
2022-12-12T01:35:53.120Z,97881.97
2022-12-12T01:38:19.621Z,97886.94
2022-12-12T01:40:46.806Z,97886.72
2022-12-12T01:43:21.549Z,97884.91
2022-12-12T01:46:03.004Z,97883.97
2022-12-12T01:48:35.253Z,97888.31
2022-12-12T01:51:06.991Z,97895.91
2022-12-12T01:53:34.663Z,97890.63
2022-12-12T01:56:06.005Z,97896.28
2022-12-12T01:58:33.880Z,97897.09
2022-12-12T02:01:01.574Z,97901.84
2022-12-12T02:03:28.202Z,97901.06
2022-12-12T02:06:02.529Z,97895.41
2022-12-12T02:08:30.238Z,97898.56
2022-12-12T02:10:56.880Z,97906.69
2022-12-12T02:13:27.994Z,97896.97
2022-12-12T02:16:14.837Z,97899.09
2022-12-12T02:18:55.673Z,97904.06
2022-12-12T02:21:33.409Z,97911.09
2022-12-12T02:24:28.665Z,97902.44
2022-12-12T02:27:29.029Z,97905.41
2022-12-12T02:30:03.627Z,97905.31
2022-12-12T02:32:56.985Z,97909.28
2022-12-12T02:35:35.555Z,97908.97
2022-12-12T02:38:26.825Z,97904.00
2022-12-12T02:40:53.302Z,97905.63
2022-12-12T02:43:33.905Z,97903.25
2022-12-12T02:46:07.198Z,97919.53
2022-12-12T02:49:18.790Z,97908.03
2022-12-12T02:51:46.006Z,97913.31
2022-12-12T02:54:17.535Z,97907.69
2022-12-12T02:56:53.223Z,97922.00
2022-12-12T02:59:20.154Z,97913.25
2022-12-12T03:01:55.440Z,97906.78
2022-12-12T03:04:47.764Z,97908.59
2022-12-12T03:07:47.748Z,97916.59
2022-12-12T03:10:41.027Z,97906.50
2022-12-12T03:13:13.410Z,97905.13
2022-12-12T03:15:51.633Z,97899.59
2022-12-12T03:18:33.615Z,97899.84
2022-12-12T03:21:05.789Z,97896.16
2022-12-12T03:23:38.290Z,97896.16
2022-12-12T03:26:21.455Z,97905.50
2022-12-12T03:28:54.976Z,97910.75
2022-12-12T03:31:25.487Z,97910.56
2022-12-12T03:34:04.291Z,97906.59
2022-12-12T03:36:40.675Z,97909.72
2022-12-12T03:39:13.283Z,97913.94
2022-12-12T03:41:43.752Z,97908.94
2022-12-12T03:44:18.735Z,97911.25
2022-12-12T03:46:52.066Z,97913.09
2022-12-12T03:49:28.052Z,97916.53
2022-12-12T03:52:03.151Z,97912.25
2022-12-12T03:54:59.280Z,97915.16
2022-12-12T03:57:34.486Z,97919.00
2022-12-12T04:00:07.743Z,97921.81
2022-12-12T04:03:17.998Z,97914.63
2022-12-12T04:06:11.228Z,97917.59
2022-12-12T04:08:38.887Z,97908.22
2022-12-12T04:11:43.808Z,97907.59
2022-12-12T04:14:45.736Z,97904.00
2022-12-12T04:17:18.952Z,97898.66
2022-12-12T04:20:19.461Z,97910.03
2022-12-12T04:23:17.723Z,97911.31
2022-12-12T04:26:24.848Z,97912.75
2022-12-12T04:28:59.716Z,97910.38
2022-12-12T04:31:30.732Z,97917.31
2022-12-12T04:34:07.756Z,97923.66
2022-12-12T04:36:35.480Z,97923.03
2022-12-12T04:39:04.532Z,97912.13
2022-12-12T04:41:34.450Z,97924.81
2022-12-12T04:44:04.017Z,97926.59
2022-12-12T04:46:33.231Z,97927.13
2022-12-12T04:49:07.788Z,97925.72
2022-12-12T04:51:42.463Z,97937.84
2022-12-12T04:54:14.687Z,97932.81
2022-12-12T04:56:44.803Z,97939.13
2022-12-12T04:59:11.670Z,97936.44
2022-12-12T05:01:53.511Z,97946.16
2022-12-12T05:04:36.107Z,97943.94
2022-12-12T05:07:09.945Z,97949.91
2022-12-12T05:09:37.428Z,97944.00
2022-12-12T05:12:04.499Z,97950.97
2022-12-12T05:14:31.794Z,97956.22
2022-12-12T05:17:03.437Z,97958.13
2022-12-12T05:19:29.956Z,97948.25
2022-12-12T05:21:56.440Z,97957.19
2022-12-12T05:24:22.881Z,97955.78
2022-12-12T05:26:49.417Z,97957.06
2022-12-12T05:29:15.879Z,97960.47
2022-12-12T05:31:42.326Z,97949.44
2022-12-12T05:34:10.171Z,97952.84
2022-12-12T05:36:36.720Z,97956.00
2022-12-12T05:39:03.459Z,97959.66
2022-12-12T05:41:29.946Z,97958.91
2022-12-12T05:43:56.414Z,97959.16
2022-12-12T05:46:22.967Z,97958.56
2022-12-12T05:48:50.785Z,97953.84
2022-12-12T05:51:18.046Z,97954.91
2022-12-12T05:53:45.140Z,97954.19
2022-12-12T05:56:12.413Z,97958.00
2022-12-12T05:58:40.059Z,97964.31
2022-12-12T06:01:07.263Z,97969.38
2022-12-12T06:03:34.491Z,97965.22
2022-12-12T06:06:01.497Z,97964.72
2022-12-12T06:08:28.112Z,97978.22
2022-12-12T06:10:55.925Z,97972.63
2022-12-12T06:13:22.420Z,97968.22
2022-12-12T06:15:48.989Z,97964.97
2022-12-12T06:18:16.392Z,97970.38
2022-12-12T06:20:43.766Z,97972.88
2022-12-12T06:23:10.375Z,97972.03
2022-12-12T06:25:36.819Z,97975.84
2022-12-12T06:28:03.475Z,97971.72
2022-12-12T06:30:29.964Z,97975.03
2022-12-12T06:32:56.489Z,97979.16
2022-12-12T06:35:23.025Z,97968.78
2022-12-12T06:37:49.561Z,97975.47
2022-12-12T06:40:16.372Z,97983.66
2022-12-12T06:42:47.874Z,97985.44
2022-12-12T06:45:15.742Z,97989.06
2022-12-12T06:47:42.456Z,97987.41
2022-12-12T06:50:09.464Z,97993.53
2022-12-12T06:52:36.678Z,97992.13
2022-12-12T06:55:03.541Z,97989.28
2022-12-12T06:57:30.009Z,97990.84
2022-12-12T06:59:56.451Z,97990.13
2022-12-12T07:02:29.265Z,97996.69
2022-12-12T07:04:56.785Z,97996.22
2022-12-12T07:07:23.357Z,98004.19
2022-12-12T07:09:49.921Z,98009.34
2022-12-12T07:12:16.409Z,97997.03
2022-12-12T07:14:42.843Z,98008.63
2022-12-12T07:17:09.311Z,98007.50
2022-12-12T07:19:36.011Z,98014.03
2022-12-12T07:22:09.145Z,98022.84
2022-12-12T07:24:36.508Z,98021.78
2022-12-12T07:27:03.340Z,98026.47
2022-12-12T07:29:29.931Z,98030.72
2022-12-12T07:31:56.456Z,98032.44
2022-12-12T07:34:22.976Z,98023.78
2022-12-12T07:36:49.490Z,98020.41
2022-12-12T07:39:20.592Z,98023.63
2022-12-12T07:41:47.672Z,98030.09
2022-12-12T07:44:15.907Z,98029.03
2022-12-12T07:46:42.474Z,98025.66
2022-12-12T07:49:08.975Z,98034.94
2022-12-12T07:51:35.642Z,98036.53
2022-12-12T07:54:02.134Z,98044.75
2022-12-12T07:56:28.603Z,98039.63
2022-12-12T07:58:55.476Z,98044.53
2022-12-12T08:01:25.386Z,98043.25
2022-12-12T08:03:52.431Z,98056.72
2022-12-12T08:06:19.805Z,98046.28
2022-12-12T08:08:47.861Z,98050.50
2022-12-12T08:11:18.448Z,98057.56
2022-12-12T08:13:45.105Z,98059.28
2022-12-12T08:16:33.673Z,98069.28
2022-12-12T08:19:00.441Z,98068.94
2022-12-12T08:21:27.910Z,98074.91
2022-12-12T08:24:02.132Z,98073.44
2022-12-12T08:26:29.628Z,98072.53
2022-12-12T08:28:57.485Z,98073.59
2022-12-12T08:31:24.735Z,98066.59
2022-12-12T08:33:51.915Z,98070.19
2022-12-12T08:36:21.629Z,98073.50
2022-12-12T08:38:49.016Z,98066.06
2022-12-12T08:41:16.176Z,98080.19
2022-12-12T08:43:43.806Z,98076.16
2022-12-12T08:46:17.111Z,98073.53
2022-12-12T08:48:44.977Z,98073.84
2022-12-12T08:51:12.181Z,98077.34
2022-12-12T08:53:43.971Z,98083.06
2022-12-12T08:56:10.430Z,98088.50
2022-12-12T08:58:36.945Z,98083.22
2022-12-12T09:01:09.061Z,98084.03
2022-12-12T09:03:35.518Z,98090.53
2022-12-12T09:06:01.971Z,98094.50
2022-12-12T09:08:30.724Z,98088.69
2022-12-12T09:10:57.312Z,98081.06
2022-12-12T09:13:23.785Z,98086.13
2022-12-12T09:15:51.383Z,98077.41
2022-12-12T09:18:19.178Z,98091.41
2022-12-12T09:20:53.880Z,98089.44
2022-12-12T09:23:21.900Z,98100.47
2022-12-12T09:25:48.860Z,98090.41
2022-12-12T09:28:17.985Z,98097.00
2022-12-12T09:30:45.628Z,98090.78
2022-12-12T09:33:15.788Z,98096.25
2022-12-12T09:35:42.909Z,98096.63
2022-12-12T09:38:14.271Z,98106.72
2022-12-12T09:41:10.765Z,98101.47
2022-12-12T09:43:43.897Z,98098.44
2022-12-12T09:46:37.720Z,98096.03
2022-12-12T09:49:30.243Z,98090.94
2022-12-12T09:51:57.938Z,98095.53
2022-12-12T09:54:27.007Z,98093.34
2022-12-12T09:57:11.869Z,98101.28
2022-12-12T09:59:49.642Z,98088.13
2022-12-12T10:02:58.336Z,98085.78
2022-12-12T10:05:42.028Z,98085.16
2022-12-12T10:08:11.472Z,98086.31
2022-12-12T10:11:04.050Z,98092.59
2022-12-12T10:13:33.185Z,98093.75
2022-12-12T10:16:14.500Z,98083.72
2022-12-12T10:18:48.764Z,98087.16
2022-12-12T10:21:41.959Z,98086.38
2022-12-12T10:24:32.894Z,98083.09
2022-12-12T10:27:08.440Z,98084.91
2022-12-12T10:29:41.101Z,98081.75
2022-12-12T10:32:41.571Z,98080.03
2022-12-12T10:35:49.764Z,98076.16
2022-12-12T10:38:47.132Z,98075.25
2022-12-12T10:41:31.155Z,98078.03
2022-12-12T10:44:22.310Z,98080.47
2022-12-12T10:47:18.343Z,98079.38
2022-12-12T10:49:44.944Z,98080.38
2022-12-12T10:52:18.263Z,98075.16
2022-12-12T10:54:50.830Z,98080.94
2022-12-12T10:57:26.827Z,98073.81
2022-12-12T10:59:56.044Z,98082.38
2022-12-12T11:02:22.595Z,98077.63
2022-12-12T11:04:49.345Z,98077.94
2022-12-12T11:07:20.847Z,98071.03
2022-12-12T11:09:47.308Z,98065.88
2022-12-12T11:12:16.640Z,98067.78
2022-12-12T11:14:52.503Z,98068.63
2022-12-12T11:17:24.727Z,98065.84
2022-12-12T11:19:53.576Z,98065.44
2022-12-12T11:22:21.070Z,98065.06
2022-12-12T11:24:49.770Z,98061.22
2022-12-12T11:27:28.941Z,98061.56
2022-12-12T11:30:00.458Z,98065.53
2022-12-12T11:32:37.820Z,98069.41
2022-12-12T11:35:21.214Z,98074.19
2022-12-12T11:37:51.419Z,98065.06
2022-12-12T11:40:31.019Z,98062.03
2022-12-12T11:43:22.353Z,98054.28
2022-12-12T11:46:15.291Z,98048.94
2022-12-12T11:49:02.776Z,98053.88
2022-12-12T11:51:37.022Z,98057.13
2022-12-12T11:54:10.710Z,98056.88
2022-12-12T11:56:53.088Z,98062.44
2022-12-12T11:59:56.905Z,98057.16
2022-12-12T12:02:51.311Z,98060.19
2022-12-12T12:05:20.713Z,98055.09
2022-12-12T12:08:02.418Z,98052.34
2022-12-12T12:10:28.878Z,98054.00
2022-12-12T12:12:58.349Z,98052.84
2022-12-12T12:15:38.224Z,98045.34
2022-12-12T12:18:28.412Z,98044.91
2022-12-12T12:21:07.099Z,98043.91
2022-12-12T12:23:55.823Z,98038.28
2022-12-12T12:26:35.110Z,98036.84
2022-12-12T12:29:29.851Z,98035.94
2022-12-12T12:32:27.706Z,98035.75
2022-12-12T12:35:03.438Z,98030.03
2022-12-12T12:37:50.761Z,98019.88
2022-12-12T12:40:41.671Z,98016.88
2022-12-12T12:43:41.880Z,98012.78
2022-12-12T12:46:29.697Z,98014.53
2022-12-12T12:49:04.232Z,98018.66
2022-12-12T12:51:50.095Z,98012.94
2022-12-12T12:54:39.255Z,98011.16
2022-12-12T12:57:12.399Z,98014.84
2022-12-12T12:59:43.848Z,98015.66
2022-12-12T13:02:25.300Z,98017.03
2022-12-12T13:05:07.343Z,98022.09
2022-12-12T13:07:46.227Z,98014.78
2022-12-12T13:10:33.589Z,98014.56
2022-12-12T13:13:15.460Z,98014.19
2022-12-12T13:15:46.677Z,98013.34
2022-12-12T13:18:15.831Z,98013.72
2022-12-12T13:20:46.008Z,98011.13
2022-12-12T13:23:19.406Z,97991.66
2022-12-12T13:26:06.448Z,97988.25
2022-12-12T13:28:40.580Z,97985.09
2022-12-12T13:31:25.427Z,97988.09
2022-12-12T13:34:09.386Z,97990.44
2022-12-12T13:36:40.015Z,97992.75
2022-12-12T13:39:08.992Z,97996.28
2022-12-12T13:42:01.184Z,97987.44
2022-12-12T13:44:47.251Z,97984.69
2022-12-12T13:47:22.683Z,97993.94
2022-12-12T13:50:00.620Z,97986.44
2022-12-12T13:52:38.023Z,97986.16
2022-12-12T13:55:21.478Z,97981.91
2022-12-12T13:57:57.194Z,97987.09
2022-12-12T14:00:28.162Z,97982.19
2022-12-12T14:03:01.719Z,97973.75
2022-12-12T14:05:33.480Z,97968.13
2022-12-12T14:08:22.456Z,97967.63
2022-12-12T14:10:48.929Z,97963.50
2022-12-12T14:13:21.226Z,97960.09
2022-12-12T14:16:13.916Z,97966.41
2022-12-12T14:18:57.548Z,97967.22
2022-12-12T14:21:38.777Z,97968.31
2022-12-12T14:24:33.529Z,97966.09
2022-12-12T14:27:01.584Z,97961.13
2022-12-12T14:29:30.346Z,97965.94
2022-12-12T14:32:33.227Z,97963.16
2022-12-12T14:35:29.020Z,97977.03
2022-12-12T14:38:27.848Z,97978.56
2022-12-12T14:41:00.330Z,97971.88
2022-12-12T14:43:31.090Z,97974.19
2022-12-12T14:45:59.766Z,97984.75
2022-12-12T14:48:28.827Z,97982.81
2022-12-12T14:51:10.258Z,97984.91
2022-12-12T14:53:36.686Z,97990.00
2022-12-12T14:56:29.639Z,97988.00
2022-12-12T14:59:02.937Z,97982.03
2022-12-12T15:01:34.345Z,97980.44
2022-12-12T15:04:07.316Z,97976.63
2022-12-12T15:06:53.385Z,97980.47
2022-12-12T15:09:30.229Z,97967.78
2022-12-12T15:12:42.725Z,97972.56
2022-12-12T15:15:27.335Z,97965.31
2022-12-12T15:17:58.629Z,97961.75
2022-12-12T15:20:28.396Z,97966.25
2022-12-12T15:23:01.552Z,97968.13
2022-12-12T15:25:34.340Z,97974.66
2022-12-12T15:28:01.895Z,97958.81
2022-12-12T15:30:37.597Z,97964.66
2022-12-12T15:33:08.862Z,97970.41
2022-12-12T15:35:35.681Z,97969.03
2022-12-12T15:38:10.324Z,97968.59
2022-12-12T15:40:38.193Z,97975.50
2022-12-12T15:43:11.030Z,97982.34
2022-12-12T15:45:43.703Z,97991.41
2022-12-12T15:48:18.298Z,97998.75
2022-12-12T15:50:44.670Z,97995.59
2022-12-12T15:53:32.484Z,97997.84
2022-12-12T15:56:00.628Z,98002.25
2022-12-12T15:58:40.045Z,97994.31
2022-12-12T16:01:20.672Z,97996.28
2022-12-12T16:03:58.115Z,98000.31
2022-12-12T16:06:33.446Z,97993.28
2022-12-12T16:09:00.656Z,97991.88
2022-12-12T16:11:37.687Z,97988.19
2022-12-12T16:14:22.629Z,97992.31
2022-12-12T16:16:59.573Z,97990.09
2022-12-12T16:19:45.899Z,97993.31
2022-12-12T16:22:18.255Z,97991.44
2022-12-12T16:24:54.615Z,97996.09
2022-12-12T16:27:21.771Z,97995.44
2022-12-12T16:29:48.623Z,97996.84
2022-12-12T16:32:18.151Z,97995.69
2022-12-12T16:34:45.182Z,97995.47
2022-12-12T16:37:17.381Z,98001.53
2022-12-12T16:39:44.362Z,97999.59
2022-12-12T16:42:13.163Z,98002.50
2022-12-12T16:44:39.660Z,98006.88
2022-12-12T16:47:23.914Z,98006.28
2022-12-12T16:49:50.908Z,98017.09
2022-12-12T16:52:19.395Z,98016.50
2022-12-12T16:54:53.190Z,98026.44
2022-12-12T16:57:21.958Z,98021.75
2022-12-12T16:59:48.705Z,98026.25
2022-12-12T17:02:18.211Z,98027.00
2022-12-12T17:04:44.693Z,98028.44
2022-12-12T17:07:11.197Z,98033.63
2022-12-12T17:09:37.681Z,98027.75
2022-12-12T17:12:04.461Z,98024.34
2022-12-12T17:14:31.029Z,98022.50
2022-12-12T17:16:57.615Z,98026.94
2022-12-12T17:19:26.281Z,98024.63
2022-12-12T17:21:53.205Z,98025.88
2022-12-12T17:24:20.537Z,98028.59
2022-12-12T17:26:47.940Z,98019.44
2022-12-12T17:29:14.577Z,98021.41
2022-12-12T17:31:41.336Z,98020.72
2022-12-12T17:34:08.088Z,98022.72
2022-12-12T17:36:34.693Z,98016.97
2022-12-12T17:39:01.253Z,98018.13
2022-12-12T17:41:27.849Z,98024.59
2022-12-12T17:43:56.019Z,98021.41
2022-12-12T17:46:23.292Z,98019.06
2022-12-12T17:48:50.191Z,98021.75
2022-12-12T17:51:19.685Z,98020.47
2022-12-12T17:53:46.387Z,98014.84
2022-12-12T17:56:16.005Z,98014.72
2022-12-12T17:58:44.687Z,98012.47
2022-12-12T18:01:17.848Z,98012.59
2022-12-12T18:03:44.632Z,98011.75
2022-12-12T18:06:11.547Z,98014.59
2022-12-12T18:08:38.659Z,98012.22
2022-12-12T18:11:15.039Z,98016.09
2022-12-12T18:13:42.256Z,98013.41
2022-12-12T18:16:11.642Z,98009.97
2022-12-12T18:18:39.175Z,98000.00
2022-12-12T18:21:10.563Z,98011.25
2022-12-12T18:23:39.394Z,98005.50
2022-12-12T18:26:09.732Z,97999.75
2022-12-12T18:28:36.519Z,98002.44
2022-12-12T18:31:04.626Z,98001.44
2022-12-12T18:33:31.126Z,98004.59
2022-12-12T18:36:06.086Z,97999.59
2022-12-12T18:38:33.454Z,98008.16
2022-12-12T18:41:00.309Z,98015.38
2022-12-12T18:43:28.279Z,98008.72
2022-12-12T18:45:55.692Z,98009.03
2022-12-12T18:48:22.373Z,98013.00
2022-12-12T18:50:48.899Z,98015.44
2022-12-12T18:53:15.846Z,98012.50
2022-12-12T18:55:42.963Z,98019.97
2022-12-12T18:58:10.813Z,98024.81
2022-12-12T19:00:40.142Z,98022.47
2022-12-12T19:03:07.689Z,98022.09
2022-12-12T19:05:39.345Z,98017.41
2022-12-12T19:08:05.898Z,98026.06
2022-12-12T19:10:34.485Z,98025.81
2022-12-12T19:13:01.219Z,98016.78
2022-12-12T19:15:27.836Z,98026.06
2022-12-12T19:17:55.985Z,98026.63
2022-12-12T19:20:23.962Z,98028.19
2022-12-12T19:22:50.537Z,98027.13
2022-12-12T19:25:18.060Z,98018.84
2022-12-12T19:27:45.110Z,98030.47
2022-12-12T19:30:13.283Z,98030.13
2022-12-12T19:32:41.319Z,98027.41
2022-12-12T19:35:08.486Z,98025.97
2022-12-12T19:37:36.022Z,98027.28
2022-12-12T19:40:02.532Z,98024.66
2022-12-12T19:42:28.972Z,98022.78
2022-12-12T19:44:55.418Z,98024.50
2022-12-12T19:47:21.890Z,98015.44
2022-12-12T19:49:49.187Z,98021.00
2022-12-12T19:52:15.648Z,98022.41
2022-12-12T19:54:42.150Z,98026.06
2022-12-12T19:57:08.613Z,98027.19
2022-12-12T19:59:35.076Z,98018.25
2022-12-12T20:02:01.595Z,98019.41
2022-12-12T20:04:30.055Z,98022.78
2022-12-12T20:06:57.278Z,98023.78
2022-12-12T20:09:29.278Z,98020.75
2022-12-12T20:11:58.081Z,98016.56
2022-12-12T20:14:33.609Z,98011.50
2022-12-12T20:17:00.657Z,98014.78
2022-12-12T20:19:27.809Z,98021.19
2022-12-12T20:22:03.631Z,98018.63
2022-12-12T20:24:32.561Z,98016.09
2022-12-12T20:27:00.004Z,98015.88
2022-12-12T20:29:27.219Z,98018.34
2022-12-12T20:31:53.708Z,98008.13
2022-12-12T20:34:22.507Z,98014.00
2022-12-12T20:36:50.186Z,98013.78
2022-12-12T20:39:22.084Z,98011.97
2022-12-12T20:41:50.174Z,98017.00
2022-12-12T20:44:16.649Z,98011.34
2022-12-12T20:46:45.787Z,98009.63
2022-12-12T20:49:17.977Z,98007.13
2022-12-12T20:51:55.179Z,98014.66
2022-12-12T20:54:24.009Z,98008.50
2022-12-12T20:56:50.495Z,98002.72
2022-12-12T20:59:17.050Z,98007.84
2022-12-12T21:01:43.632Z,98006.00
2022-12-12T21:04:10.490Z,98002.41
2022-12-12T21:06:48.049Z,98002.59
2022-12-12T21:09:22.741Z,97999.50
2022-12-12T21:11:52.897Z,98003.84
2022-12-12T21:14:19.520Z,97996.34
2022-12-12T21:16:46.328Z,97995.19
2022-12-12T21:19:14.242Z,97998.50
2022-12-12T21:21:42.560Z,98004.47
2022-12-12T21:24:12.186Z,97999.72
2022-12-12T21:26:38.746Z,97997.75
2022-12-12T21:29:05.867Z,97994.19
2022-12-12T21:31:36.257Z,97988.00
2022-12-12T21:34:05.689Z,98001.56
2022-12-12T21:36:33.491Z,97995.13
2022-12-12T21:39:02.339Z,97993.03
2022-12-12T21:41:29.656Z,97990.03
2022-12-12T21:43:59.347Z,97988.75
2022-12-12T21:46:28.441Z,97985.03
2022-12-12T21:49:14.692Z,97983.69
2022-12-12T21:51:41.740Z,97978.94
2022-12-12T21:54:10.450Z,97982.22
2022-12-12T21:56:38.004Z,97980.59
2022-12-12T21:59:04.742Z,97977.19
2022-12-12T22:01:32.363Z,97972.03
2022-12-12T22:03:59.958Z,97967.34
2022-12-12T22:06:29.689Z,97968.59
2022-12-12T22:08:57.149Z,97971.53
2022-12-12T22:11:40.785Z,97971.16
2022-12-12T22:14:11.312Z,97967.25
2022-12-12T22:16:38.420Z,97966.00
2022-12-12T22:19:07.817Z,97970.44
2022-12-12T22:21:35.193Z,97966.94
2022-12-12T22:24:02.165Z,97966.63
2022-12-12T22:26:33.390Z,97970.88
2022-12-12T22:29:03.363Z,97968.88
2022-12-12T22:31:31.807Z,97971.06
2022-12-12T22:34:01.311Z,97972.47
2022-12-12T22:36:33.908Z,97968.56
2022-12-12T22:39:01.501Z,97963.97
2022-12-12T22:41:29.380Z,97961.16
2022-12-12T22:44:01.753Z,97969.31
2022-12-12T22:46:28.866Z,97965.72
2022-12-12T22:48:57.393Z,97969.31
2022-12-12T22:51:27.463Z,97955.84
2022-12-12T22:54:02.519Z,97964.19
2022-12-12T22:56:30.998Z,97959.88
2022-12-12T22:58:58.162Z,97962.00
2022-12-12T23:01:26.501Z,97960.97
2022-12-12T23:03:53.109Z,97950.69
2022-12-12T23:06:32.657Z,97956.63
2022-12-12T23:09:05.820Z,97947.91
2022-12-12T23:11:33.499Z,97948.84
2022-12-12T23:14:02.939Z,97944.59
2022-12-12T23:16:30.936Z,97938.88
2022-12-12T23:18:58.629Z,97932.59
2022-12-12T23:21:26.193Z,97933.50
2022-12-12T23:23:54.179Z,97926.72
2022-12-12T23:26:23.784Z,97925.22
2022-12-12T23:28:50.253Z,97917.25
2022-12-12T23:31:20.031Z,97921.28
2022-12-12T23:33:46.755Z,97913.25
2022-12-12T23:36:15.178Z,97918.06
2022-12-12T23:38:42.223Z,97912.31
2022-12-12T23:41:11.303Z,97911.50
2022-12-12T23:43:38.266Z,97904.47
2022-12-12T23:46:07.554Z,97909.38
2022-12-12T23:48:35.029Z,97908.56
2022-12-12T23:51:01.645Z,97899.09
2022-12-12T23:53:32.483Z,97906.28
2022-12-12T23:56:03.950Z,97900.47
2022-12-12T23:58:30.459Z,97900.38
